createdAt,value
2022-08-05T00:00:20.982Z,1.70
2022-08-05T00:02:51.296Z,2.00
2022-08-05T00:06:02.496Z,2.00
2022-08-05T00:08:34.079Z,2.13
2022-08-05T00:11:02.987Z,2.10
2022-08-05T00:13:39.503Z,2.23
2022-08-05T00:16:14.941Z,2.10
2022-08-05T00:18:48.517Z,2.20
2022-08-05T00:21:18.158Z,2.20
2022-08-05T00:24:09.926Z,2.23
2022-08-05T00:26:34.418Z,2.23
2022-08-05T00:29:01.553Z,2.30
2022-08-05T00:31:53.156Z,1.60
2022-08-05T00:34:53.354Z,2.33
2022-08-05T00:37:09.860Z,1.90
2022-08-05T00:39:57.192Z,2.10
2022-08-05T00:42:38.149Z,2.03
2022-08-05T00:45:08.504Z,2.63
2022-08-05T00:47:56.783Z,2.20
2022-08-05T00:50:25.318Z,2.30
2022-08-05T00:52:55.043Z,1.70
2022-08-05T00:55:23.318Z,2.20
2022-08-05T00:58:16.952Z,2.70
2022-08-05T01:00:47.499Z,1.50
2022-08-05T01:03:22.740Z,2.10
2022-08-05T01:05:51.778Z,1.70
2022-08-05T01:08:39.950Z,2.20
2022-08-05T01:11:33.490Z,2.10
2022-08-05T01:14:27.784Z,2.20
2022-08-05T01:17:04.675Z,1.80
2022-08-05T01:20:06.178Z,1.93
2022-08-05T01:23:00.651Z,1.70
2022-08-05T01:25:56.823Z,2.00
2022-08-05T01:28:54.012Z,2.50
2022-08-05T01:31:42.672Z,1.97
2022-08-05T01:34:50.804Z,2.13
2022-08-05T01:37:31.092Z,1.90
2022-08-05T01:40:01.652Z,2.20
2022-08-05T01:42:31.526Z,2.13
2022-08-05T01:45:02.296Z,2.17
2022-08-05T01:47:39.014Z,2.03
2022-08-05T01:50:20.119Z,2.13
2022-08-05T01:53:02.577Z,2.00
2022-08-05T01:55:36.086Z,2.17
2022-08-05T01:58:12.556Z,2.33
2022-08-05T02:00:51.009Z,1.90
2022-08-05T02:03:36.179Z,2.00
2022-08-05T02:06:37.369Z,2.30
2022-08-05T02:08:58.957Z,2.03
2022-08-05T02:11:33.114Z,2.10
2022-08-05T02:14:15.631Z,1.40
2022-08-05T02:16:53.016Z,1.80
2022-08-05T02:19:47.251Z,2.33
2022-08-05T02:22:31.600Z,2.10
2022-08-05T02:25:08.756Z,1.87
2022-08-05T02:27:59.724Z,1.97
2022-08-05T02:30:51.749Z,1.90
2022-08-05T02:33:24.619Z,2.10
2022-08-05T02:39:09.285Z,1.60
2022-08-05T02:41:58.034Z,1.60
2022-08-05T02:44:28.299Z,1.80
2022-08-05T02:47:00.693Z,1.77
2022-08-05T02:49:36.671Z,1.70
2022-08-05T02:52:26.028Z,1.50
2022-08-05T02:55:01.969Z,1.73
2022-08-05T02:58:11.264Z,1.90
2022-08-05T03:00:22.750Z,1.73
2022-08-05T03:02:54.543Z,1.60
2022-08-05T03:06:55.387Z,1.90
2022-08-05T03:08:11.299Z,1.80
2022-08-05T03:10:38.931Z,2.00
2022-08-05T03:13:17.209Z,2.03
2022-08-05T03:15:50.857Z,1.90
2022-08-05T03:18:19.049Z,1.87
2022-08-05T03:20:57.146Z,2.13
2022-08-05T03:23:25.148Z,2.20
2022-08-05T03:26:03.923Z,2.17
2022-08-05T03:28:40.025Z,2.10
2022-08-05T03:31:09.363Z,2.30
2022-08-05T03:33:52.778Z,1.93
2022-08-05T03:36:30.110Z,2.20
2022-08-05T03:38:58.287Z,2.20
2022-08-05T03:41:25.725Z,2.00
2022-08-05T03:44:10.998Z,2.37
2022-08-05T03:46:39.334Z,1.97
2022-08-05T03:49:06.790Z,2.20
2022-08-05T03:52:37.213Z,2.23
2022-08-05T03:55:51.843Z,2.00
2022-08-05T03:57:42.357Z,2.60
2022-08-05T04:00:15.863Z,1.83
2022-08-05T04:02:57.750Z,2.63
2022-08-05T04:05:34.417Z,2.43
2022-08-05T04:08:35.327Z,2.60
2022-08-05T04:11:03.370Z,2.50
2022-08-05T04:13:49.930Z,2.93
2022-08-05T04:16:24.343Z,2.47
2022-08-05T04:18:54.763Z,2.57
2022-08-05T04:22:08.590Z,2.40
2022-08-05T04:24:19.119Z,2.17
2022-08-05T04:26:50.334Z,2.57
2022-08-05T04:29:17.319Z,2.97
2022-08-05T04:31:44.256Z,2.70
2022-08-05T04:34:29.569Z,2.40
2022-08-05T04:36:59.256Z,2.43
2022-08-05T04:39:27.928Z,2.60
2022-08-05T04:41:55.490Z,3.30
2022-08-05T04:44:29.992Z,2.70
2022-08-05T04:47:09.170Z,2.40
2022-08-05T04:50:03.013Z,2.20
2022-08-05T04:52:28.383Z,3.00
2022-08-05T04:54:57.256Z,2.47
2022-08-05T04:57:29.229Z,2.77
2022-08-05T04:59:58.664Z,2.97
2022-08-05T05:02:36.980Z,2.80
2022-08-05T05:05:16.706Z,3.60
2022-08-05T05:08:30.155Z,3.07
2022-08-05T05:10:57.676Z,2.67
2022-08-05T05:13:24.877Z,2.60
2022-08-05T05:16:01.995Z,2.50
2022-08-05T05:18:33.626Z,2.67
2022-08-05T05:21:03.198Z,2.60
2022-08-05T05:23:38.993Z,2.60
2022-08-05T05:26:17.747Z,2.30
2022-08-05T05:28:45.372Z,2.80
2022-08-05T05:31:13.026Z,2.70
2022-08-05T05:33:58.512Z,2.40
2022-08-05T05:36:28.518Z,2.83
2022-08-05T05:38:57.334Z,2.20
2022-08-05T05:41:24.741Z,2.60
2022-08-05T05:43:56.552Z,2.67
2022-08-05T05:46:25.834Z,2.60
2022-08-05T05:48:52.989Z,2.70
2022-08-05T05:51:22.075Z,3.20
2022-08-05T05:53:57.297Z,2.90
2022-08-05T05:56:32.937Z,2.53
2022-08-05T05:59:06.994Z,2.53
2022-08-05T06:01:39.453Z,2.73
2022-08-05T06:04:12.250Z,2.50
2022-08-05T06:06:47.722Z,2.33
2022-08-05T06:09:26.517Z,2.33
2022-08-05T06:12:05.783Z,2.30
2022-08-05T06:14:37.141Z,2.77
2022-08-05T06:17:22.476Z,2.20
2022-08-05T06:19:56.775Z,2.30
2022-08-05T06:22:33.477Z,2.70
2022-08-05T06:25:58.976Z,2.70
2022-08-05T06:28:11.466Z,2.30
2022-08-05T06:30:38.188Z,2.37
2022-08-05T06:33:10.604Z,2.20
2022-08-05T06:36:04.003Z,2.43
2022-08-05T06:38:36.042Z,1.90
2022-08-05T06:41:08.028Z,2.23
2022-08-05T06:43:51.559Z,1.93
2022-08-05T06:46:30.261Z,2.50
2022-08-05T06:48:59.730Z,2.33
2022-08-05T06:51:29.744Z,2.07
2022-08-05T06:53:59.881Z,1.90
2022-08-05T06:56:28.207Z,2.30
2022-08-05T06:58:55.755Z,2.20
2022-08-05T07:01:27.705Z,1.93
2022-08-05T07:04:02.273Z,2.30
2022-08-05T07:06:30.120Z,2.10
2022-08-05T07:08:59.206Z,2.97
2022-08-05T07:11:28.612Z,2.40
2022-08-05T07:14:20.010Z,2.07
2022-08-05T07:17:59.112Z,2.00
2022-08-05T07:22:28.747Z,1.93
2022-08-05T07:25:22.381Z,2.33
2022-08-05T07:27:57.566Z,1.80
2022-08-05T07:30:39.207Z,1.80
2022-08-05T07:33:16.687Z,1.83
2022-08-05T07:36:05.057Z,1.40
2022-08-05T07:38:42.583Z,1.90
2022-08-05T07:42:13.506Z,1.97
2022-08-05T07:44:14.186Z,2.23
2022-08-05T07:46:48.411Z,1.70
2022-08-05T07:49:18.122Z,2.20
2022-08-05T07:51:52.851Z,2.20
2022-08-05T07:54:30.734Z,1.90
2022-08-05T07:57:02.876Z,2.20
2022-08-05T07:59:46.901Z,2.20
2022-08-05T08:02:17.664Z,1.83
2022-08-05T08:04:49.500Z,2.50
2022-08-05T08:07:22.697Z,2.03
2022-08-05T08:09:55.037Z,2.47
2022-08-05T08:12:37.419Z,2.47
2022-08-05T08:15:15.404Z,2.23
2022-08-05T08:17:52.977Z,2.40
2022-08-05T08:21:00.286Z,1.80
2022-08-05T08:24:02.598Z,2.60
2022-08-05T08:26:04.504Z,1.90
2022-08-05T08:28:36.427Z,1.80
2022-08-05T08:31:07.319Z,1.67
2022-08-05T08:33:37.600Z,1.60
2022-08-05T08:36:50.494Z,1.77
2022-08-05T08:39:18.644Z,1.70
2022-08-05T08:41:51.682Z,2.10
2022-08-05T08:45:18.901Z,1.80
2022-08-05T08:48:05.811Z,1.70
2022-08-05T08:50:30.710Z,1.60
2022-08-05T08:53:07.950Z,1.37
2022-08-05T08:56:02.741Z,1.80
2022-08-05T08:58:43.548Z,1.40
2022-08-05T09:01:15.838Z,1.50
2022-08-05T09:03:48.382Z,1.60
2022-08-05T09:06:28.232Z,1.87
2022-08-05T09:09:02.091Z,1.60
2022-08-05T09:11:53.194Z,1.70
2022-08-05T09:14:56.898Z,1.80
2022-08-05T09:17:09.805Z,1.27
2022-08-05T09:19:55.056Z,2.70
2022-08-05T09:22:31.868Z,2.43
2022-08-05T09:25:13.711Z,1.60
2022-08-05T09:28:04.307Z,1.60
2022-08-05T09:30:34.935Z,1.50
2022-08-05T09:33:02.653Z,1.70
2022-08-05T09:35:34.432Z,1.40
2022-08-05T09:38:17.146Z,1.40
2022-08-05T09:40:52.433Z,1.20
2022-08-05T09:43:41.606Z,1.70
2022-08-05T09:46:32.856Z,1.53
2022-08-05T09:49:19.403Z,1.60
2022-08-05T09:51:48.993Z,1.80
2022-08-05T09:54:29.564Z,1.40
2022-08-05T09:56:57.489Z,2.57
2022-08-05T09:59:27.574Z,1.40
2022-08-05T10:01:57.790Z,1.90
2022-08-05T10:04:38.557Z,1.60
2022-08-05T10:07:19.623Z,1.50
2022-08-05T10:10:04.274Z,1.70
2022-08-05T10:12:55.429Z,1.87
2022-08-05T10:15:34.090Z,1.30
2022-08-05T10:18:16.730Z,1.60
2022-08-05T10:20:53.804Z,1.63
2022-08-05T10:23:55.418Z,2.87
2022-08-05T10:26:31.606Z,1.97
2022-08-05T10:29:00.462Z,1.93
2022-08-05T10:33:01.410Z,1.57
2022-08-05T10:34:14.741Z,1.70
2022-08-05T10:36:45.119Z,1.50
2022-08-05T10:39:25.209Z,2.27
2022-08-05T10:42:18.652Z,2.00
2022-08-05T10:44:50.971Z,1.70
2022-08-05T10:47:26.779Z,1.80
2022-08-05T10:50:33.176Z,1.60
2022-08-05T10:52:58.706Z,1.67
2022-08-05T10:55:27.474Z,2.03
2022-08-05T10:58:21.002Z,2.27
2022-08-05T11:00:48.469Z,1.70
2022-08-05T11:03:24.603Z,1.97
2022-08-05T11:06:15.363Z,2.17
2022-08-05T11:09:32.167Z,1.80
2022-08-05T11:12:26.672Z,1.87
2022-08-05T11:16:00.347Z,1.70
2022-08-05T11:18:37.020Z,1.60
2022-08-05T11:21:40.919Z,1.87
2022-08-05T11:24:29.965Z,1.50
2022-08-05T11:27:51.440Z,2.00
2022-08-05T11:30:17.989Z,1.50
2022-08-05T11:32:47.911Z,1.80
2022-08-05T11:36:07.627Z,1.30
2022-08-05T11:38:46.124Z,1.70
2022-08-05T11:41:58.205Z,1.60
2022-08-05T11:44:40.780Z,1.80
2022-08-05T11:47:11.708Z,2.00
2022-08-05T11:49:43.242Z,1.33
2022-08-05T11:52:29.208Z,1.50
2022-08-05T11:54:59.345Z,1.83
2022-08-05T11:57:39.591Z,1.73
2022-08-05T12:00:31.126Z,1.37
2022-08-05T12:02:58.411Z,1.73
2022-08-05T12:05:32.341Z,1.60
2022-08-05T12:08:11.262Z,1.90
2022-08-05T12:10:45.768Z,1.70
2022-08-05T12:13:27.987Z,1.67
2022-08-05T12:16:14.484Z,2.00
2022-08-05T12:18:52.787Z,1.70
2022-08-05T12:21:30.690Z,2.03
2022-08-05T12:24:07.340Z,2.17
2022-08-05T12:26:44.286Z,1.80
2022-08-05T12:29:23.632Z,1.87
2022-08-05T12:31:56.024Z,1.60
2022-08-05T12:34:33.621Z,2.10
2022-08-05T12:37:21.492Z,2.30
2022-08-05T12:39:53.777Z,2.40
2022-08-05T12:42:21.898Z,2.20
2022-08-05T12:44:52.787Z,2.20
2022-08-05T12:47:31.088Z,2.23
2022-08-05T12:50:03.285Z,1.30
2022-08-05T12:52:39.578Z,1.97
2022-08-05T12:55:26.265Z,2.00
2022-08-05T12:58:50.934Z,1.80
2022-08-05T13:02:01.313Z,2.10
2022-08-05T13:03:42.043Z,1.97
2022-08-05T13:06:16.776Z,1.87
2022-08-05T13:08:51.791Z,2.23
2022-08-05T13:11:25.316Z,2.37
2022-08-05T13:14:36.296Z,1.93
2022-08-05T13:17:31.707Z,1.90
2022-08-05T13:20:24.145Z,1.53
2022-08-05T13:22:56.363Z,2.03
2022-08-05T13:25:51.945Z,2.37
2022-08-05T13:28:12.980Z,2.30
2022-08-05T13:30:41.364Z,2.57
2022-08-05T13:33:08.539Z,2.03
2022-08-05T13:35:51.185Z,2.60
2022-08-05T13:38:31.153Z,1.80
2022-08-05T13:41:03.909Z,1.90
2022-08-05T13:43:44.163Z,1.70
2022-08-05T13:46:13.885Z,2.37
2022-08-05T13:48:57.497Z,2.27
2022-08-05T13:51:40.193Z,2.50
2022-08-05T13:54:12.321Z,1.90
2022-08-05T13:56:51.093Z,1.90
2022-08-05T13:59:24.720Z,2.47
2022-08-05T14:01:59.867Z,2.33
2022-08-05T14:04:51.137Z,1.90
2022-08-05T14:07:25.743Z,2.07
2022-08-05T14:10:19.153Z,1.70
2022-08-05T14:12:55.482Z,2.10
2022-08-05T14:16:08.685Z,2.27
2022-08-05T14:18:14.754Z,2.20
2022-08-05T14:20:46.838Z,1.83
2022-08-05T14:23:24.604Z,1.80
2022-08-05T14:25:58.524Z,1.63
2022-08-05T14:28:30.876Z,2.00
2022-08-05T14:31:00.873Z,2.20
2022-08-05T14:33:56.811Z,2.00
2022-08-05T14:36:20.605Z,2.30
2022-08-05T14:38:50.783Z,2.40
2022-08-05T14:41:20.053Z,2.70
2022-08-05T14:44:02.195Z,2.40
2022-08-05T14:46:36.704Z,2.10
2022-08-05T14:49:07.341Z,1.93
2022-08-05T14:51:42.582Z,2.67
2022-08-05T14:54:27.501Z,2.00
2022-08-05T14:56:57.945Z,1.90
2022-08-05T14:59:29.525Z,2.20
2022-08-05T15:02:03.550Z,1.90
2022-08-05T15:04:41.953Z,1.70
2022-08-05T15:07:10.355Z,1.93
2022-08-05T15:09:57.500Z,1.77
2022-08-05T15:12:33.658Z,2.50
2022-08-05T15:15:15.500Z,2.43
2022-08-05T15:17:46.920Z,1.90
2022-08-05T15:20:24.627Z,2.37
2022-08-05T15:22:54.927Z,2.13
2022-08-05T15:25:41.326Z,2.23
2022-08-05T15:28:14.874Z,2.00
2022-08-05T15:30:45.745Z,2.00
2022-08-05T15:33:56.835Z,2.67
2022-08-05T15:36:04.090Z,2.60
2022-08-05T15:38:41.258Z,2.03
2022-08-05T15:41:21.047Z,2.57
2022-08-05T15:43:51.311Z,2.10
2022-08-05T15:46:20.803Z,2.40
2022-08-05T15:49:00.951Z,1.90
2022-08-05T15:52:13.642Z,2.20
2022-08-05T15:54:37.329Z,2.60
2022-08-05T15:57:07.462Z,1.90
2022-08-05T15:59:36.146Z,2.30
2022-08-05T16:02:14.487Z,2.53
2022-08-05T16:04:43.421Z,3.00
2022-08-05T16:07:11.390Z,2.77
2022-08-05T16:09:41.586Z,2.87
2022-08-05T16:12:09.456Z,2.70
2022-08-05T16:14:38.491Z,2.30
2022-08-05T16:17:05.646Z,2.70
2022-08-05T16:20:11.772Z,2.40
2022-08-05T16:22:27.430Z,2.23
2022-08-05T16:24:55.510Z,3.23
2022-08-05T16:27:46.692Z,3.17
2022-08-05T16:30:26.472Z,2.73
2022-08-05T16:32:58.609Z,3.00
2022-08-05T16:35:33.709Z,2.53
2022-08-05T16:38:24.510Z,2.50
2022-08-05T16:40:59.825Z,2.53
2022-08-05T16:43:33.607Z,3.40
2022-08-05T16:46:23.762Z,2.30
2022-08-05T16:48:52.083Z,2.37
2022-08-05T16:51:20.709Z,3.13
2022-08-05T16:54:02.546Z,2.20
2022-08-05T16:56:34.323Z,2.17
2022-08-05T16:59:09.098Z,2.67
2022-08-05T17:01:52.956Z,2.77
2022-08-05T17:04:26.594Z,2.90
2022-08-05T17:07:01.288Z,2.57
2022-08-05T17:09:30.261Z,2.40
2022-08-05T17:11:59.723Z,2.53
2022-08-05T17:14:37.447Z,3.03
2022-08-05T17:17:14.151Z,2.40
2022-08-05T17:19:45.642Z,2.40
2022-08-05T17:22:24.903Z,2.03
2022-08-05T17:24:57.599Z,2.87
2022-08-05T17:27:33.848Z,2.23
2022-08-05T17:30:12.191Z,2.43
2022-08-05T17:32:46.679Z,2.03
2022-08-05T17:35:15.827Z,2.37
2022-08-05T17:37:48.647Z,3.20
2022-08-05T17:40:18.539Z,2.43
2022-08-05T17:42:52.212Z,2.50
2022-08-05T17:45:22.941Z,2.10
2022-08-05T17:47:54.957Z,2.00
2022-08-05T17:50:30.539Z,2.70
2022-08-05T17:53:01.075Z,1.83
2022-08-05T17:55:38.163Z,2.30
2022-08-05T17:58:09.324Z,2.10
2022-08-05T18:00:40.801Z,2.10
2022-08-05T18:03:28.142Z,1.87
2022-08-05T18:06:04.919Z,1.87
2022-08-05T18:08:33.792Z,2.07
2022-08-05T18:11:03.253Z,2.23
2022-08-05T18:13:35.615Z,2.10
2022-08-05T18:16:05.078Z,1.97
2022-08-05T18:18:33.655Z,1.97
2022-08-05T18:21:13.400Z,1.77
2022-08-05T18:23:47.271Z,2.17
2022-08-05T18:26:14.744Z,2.00
2022-08-05T18:28:46.336Z,1.83
2022-08-05T18:31:13.738Z,1.80
2022-08-05T18:33:47.025Z,1.80
2022-08-05T18:36:15.081Z,1.83
2022-08-05T18:38:43.143Z,2.57
2022-08-05T18:41:57.573Z,1.70
2022-08-05T18:43:57.531Z,1.77
2022-08-05T18:46:33.142Z,1.87
2022-08-05T18:49:21.085Z,2.33
2022-08-05T18:52:08.412Z,1.90
2022-08-05T18:54:35.909Z,2.00
2022-08-05T18:57:09.570Z,1.70
2022-08-05T19:00:03.192Z,1.70
2022-08-05T19:02:29.896Z,1.80
2022-08-05T19:05:03.235Z,2.30
2022-08-05T19:07:50.823Z,1.97
2022-08-05T19:10:20.526Z,1.90
2022-08-05T19:12:55.741Z,1.83
2022-08-05T19:15:25.251Z,1.97
2022-08-05T19:18:22.032Z,1.60
2022-08-05T19:20:52.445Z,1.80
2022-08-05T19:24:04.095Z,1.70
2022-08-05T19:26:08.428Z,2.00
2022-08-05T19:28:43.302Z,1.50
2022-08-05T19:31:13.211Z,1.40
2022-08-05T19:33:53.086Z,2.00
2022-08-05T19:36:29.222Z,2.17
2022-08-05T19:39:00.584Z,2.03
2022-08-05T19:42:05.340Z,1.47
2022-08-05T19:44:19.522Z,1.80
2022-08-05T19:46:46.850Z,1.90
2022-08-05T19:49:16.536Z,1.80
2022-08-05T19:52:09.040Z,1.50
2022-08-05T19:54:32.896Z,1.60
2022-08-05T19:57:09.185Z,1.70
2022-08-05T19:59:55.369Z,1.60
2022-08-05T20:02:30.382Z,1.67
2022-08-05T20:04:59.719Z,1.40
2022-08-05T20:07:48.250Z,1.70
2022-08-05T20:10:17.173Z,1.80
2022-08-05T20:12:46.232Z,1.60
2022-08-05T20:15:23.058Z,1.50
2022-08-05T20:18:10.206Z,2.07
2022-08-05T20:20:56.213Z,2.00
2022-08-05T20:23:40.384Z,2.33
2022-08-05T20:26:16.125Z,2.57
2022-08-05T20:28:48.743Z,2.40
2022-08-05T20:31:21.823Z,2.40
2022-08-05T20:33:50.754Z,2.13
2022-08-05T20:36:21.564Z,2.83
2022-08-05T20:38:54.232Z,2.87
2022-08-05T20:41:44.580Z,2.80
2022-08-05T20:44:29.456Z,2.80
2022-08-05T20:46:59.718Z,2.70
2022-08-05T20:49:27.008Z,3.43
2022-08-05T20:51:55.831Z,3.47
2022-08-05T20:54:42.785Z,2.60
2022-08-05T20:57:10.859Z,3.17
2022-08-05T21:00:10.561Z,3.30
2022-08-05T21:02:29.161Z,3.60
2022-08-05T21:04:56.452Z,4.37
2022-08-05T21:07:24.349Z,4.03
2022-08-05T21:09:53.872Z,3.90
2022-08-05T21:12:21.671Z,4.20
2022-08-05T21:14:53.941Z,3.20
2022-08-05T21:17:22.128Z,3.73
2022-08-05T21:19:50.522Z,3.60
2022-08-05T21:22:23.533Z,3.87
2022-08-05T21:24:54.391Z,4.17
2022-08-05T21:27:25.382Z,4.03
2022-08-05T21:29:56.220Z,3.23
2022-08-05T21:32:26.624Z,4.10
2022-08-05T21:35:17.223Z,3.40
2022-08-05T21:37:47.294Z,3.93
2022-08-05T21:40:16.617Z,3.90
2022-08-05T21:42:45.484Z,3.73
2022-08-05T21:45:24.738Z,3.27
2022-08-05T21:47:56.230Z,4.23
2022-08-05T21:50:28.209Z,3.03
2022-08-05T21:52:58.722Z,3.17
2022-08-05T21:56:01.362Z,3.57
2022-08-05T21:58:13.281Z,3.70
2022-08-05T22:00:40.464Z,3.47
2022-08-05T22:03:14.399Z,3.73
2022-08-05T22:05:48.853Z,3.20
2022-08-05T22:08:22.159Z,3.53
2022-08-05T22:10:50.991Z,3.70
2022-08-05T22:14:06.431Z,3.60
2022-08-05T22:16:20.395Z,3.50
2022-08-05T22:18:53.029Z,4.47
2022-08-05T22:21:20.555Z,4.13
2022-08-05T22:24:09.040Z,3.73
2022-08-05T22:26:59.256Z,3.10
2022-08-05T22:29:32.844Z,3.33
2022-08-05T22:32:03.190Z,3.07
2022-08-05T22:34:32.240Z,3.00
2022-08-05T22:37:00.789Z,3.37
2022-08-05T22:39:33.981Z,3.23
2022-08-05T22:42:12.725Z,2.53
2022-08-05T22:44:48.401Z,2.80
2022-08-05T22:47:29.751Z,2.80
2022-08-05T22:50:20.364Z,2.57
2022-08-05T22:52:51.259Z,2.33
2022-08-05T22:55:21.943Z,1.90
2022-08-05T22:57:51.478Z,2.37
2022-08-05T23:00:21.730Z,2.13
2022-08-05T23:02:50.784Z,2.37
2022-08-05T23:05:22.259Z,2.50
2022-08-05T23:07:52.646Z,2.87
2022-08-05T23:10:24.049Z,2.30
2022-08-05T23:12:54.937Z,2.30
2022-08-05T23:15:27.159Z,2.87
2022-08-05T23:18:01.376Z,2.27
2022-08-05T23:20:32.341Z,2.47
2022-08-05T23:23:00.114Z,2.53
2022-08-05T23:25:52.816Z,2.53
2022-08-05T23:28:17.307Z,2.60
2022-08-05T23:30:53.077Z,2.90
2022-08-05T23:34:02.963Z,2.40
2022-08-05T23:36:10.507Z,2.57
2022-08-05T23:38:38.489Z,2.03
2022-08-05T23:41:05.788Z,2.50
2022-08-05T23:44:03.238Z,3.00
2022-08-05T23:46:22.139Z,2.20
2022-08-05T23:49:01.114Z,2.20
2022-08-05T23:51:55.459Z,2.17
2022-08-05T23:54:30.151Z,2.20
2022-08-05T23:57:04.943Z,2.17
